Terminal Aerodrome Forecast
Issued by NWS Albuquerque, NM

Home | Current Version | Previous Version | Text Only | Print | Product List | Glossary On
Versions: 1 2 3 4 5 6 7 8 9 10 11 12
705
FTUS45 KABQ 241725
TAFABQ
TAF
KABQ 241725Z 2418/2518 20008KT P6SM BKN250
     FM242300 14014KT P6SM SCT250
     FM250200 10025G35KT P6SM SCT150
     FM250400 09032G42KT P6SM SCT050
     FM250900 09026G37KT P6SM BKN050
     FM251200 09019G27KT P6SM BKN050
     FM251600 13012KT P6SM SCT050=

USA.gov is the U.S. government's official web portal to all federal, state and local government web resources and services.